Time;durP1;ratioP1;P1;durP2;ratioP2;P2;SDS_P1;SDS_P2;PMS_P1;PMS_P2;Temp;Humidity;BMP_temperature;BMP_pressure;BME280_temperature;BME280_humidity;BME280_pressure;Samples;Min_cycle;Max_cycle;Signal;HPM_P1;HPM_P2
2022/03/11 00:01:00;;;;;;;13.38;7.13;;;3.80;99.90;;;;;;6357035;22;20021;-82
2022/03/11 00:03:29;;;;;;;12.15;7.80;;;3.80;99.90;;;;;;6345005;22;20026;-82
2022/03/11 00:05:55;;;;;;;12.93;8.50;;;3.70;99.90;;;;;;6347696;22;20083;-87
2022/03/11 00:08:21;;;;;;;13.40;7.80;;;3.80;99.90;;;;;;6371191;22;20149;-82
2022/03/11 00:10:46;;;;;;;11.53;7.40;;;3.70;99.90;;;;;;6344499;22;20401;-84
2022/03/11 00:13:13;;;;;;;11.88;7.43;;;3.70;99.90;;;;;;6371874;22;20017;-84
2022/03/11 00:15:39;;;;;;;11.95;7.68;;;3.60;99.90;;;;;;6343839;22;20019;-82
2022/03/11 00:18:08;;;;;;;14.32;7.80;;;3.60;99.90;;;;;;6371823;22;20014;-82
2022/03/11 00:20:34;;;;;;;13.75;7.85;;;3.60;99.90;;;;;;6370942;22;20018;-82
2022/03/11 00:23:00;;;;;;;12.68;7.43;;;3.60;99.90;;;;;;6342500;22;20106;-82
2022/03/11 00:25:26;;;;;;;12.13;7.28;;;3.60;99.90;;;;;;6370693;22;20093;-83
2022/03/11 00:27:52;;;;;;;12.60;7.47;;;3.50;99.90;;;;;;6370861;22;20431;-84
2022/03/11 00:30:18;;;;;;;11.98;6.82;;;3.50;99.90;;;;;;6343385;22;20018;-88
2022/03/11 00:32:45;;;;;;;13.23;7.30;;;3.60;99.90;;;;;;6343617;22;20022;-84
2022/03/11 00:35:11;;;;;;;13.63;7.63;;;3.50;99.90;;;;;;6343424;22;20370;-85
2022/03/11 00:37:40;;;;;;;15.93;7.75;;;3.50;99.90;;;;;;6343879;22;20071;-85
2022/03/11 00:40:07;;;;;;;12.13;7.40;;;3.50;99.90;;;;;;6317670;22;20018;-82
2022/03/11 00:42:33;;;;;;;13.02;7.60;;;3.40;99.90;;;;;;6344482;22;20026;-83
2022/03/11 00:45:00;;;;;;;12.35;7.65;;;3.40;99.90;;;;;;6343858;22;20447;-82
2022/03/11 00:47:26;;;;;;;12.10;7.00;;;3.40;99.90;;;;;;6343486;22;20026;-84
2022/03/11 00:49:52;;;;;;;12.23;7.53;;;3.40;99.90;;;;;;6343389;22;20530;-88
2022/03/11 00:52:18;;;;;;;11.80;7.50;;;3.40;99.90;;;;;;6342901;22;20018;-81
2022/03/11 00:54:44;;;;;;;12.85;8.15;;;3.30;99.90;;;;;;6343329;22;20286;-87
2022/03/11 00:57:09;;;;;;;12.52;8.00;;;3.30;99.90;;;;;;6316641;22;20026;-92
2022/03/11 00:59:35;;;;;;;12.90;7.78;;;3.30;99.90;;;;;;6343107;22;20453;-93
2022/03/11 01:02:01;;;;;;;17.33;8.25;;;3.20;99.90;;;;;;6343443;22;20333;-88
2022/03/11 01:04:26;;;;;;;13.55;8.15;;;3.30;99.90;;;;;;6343277;22;20465;-92
2022/03/11 01:06:52;;;;;;;14.88;8.75;;;3.30;99.90;;;;;;6343305;22;20100;-94
2022/03/11 01:09:18;;;;;;;13.30;8.43;;;3.30;99.90;;;;;;6343308;22;20021;-93
2022/03/11 01:11:43;;;;;;;13.83;9.17;;;3.30;99.90;;;;;;6371108;22;20094;-92
2022/03/11 01:14:09;;;;;;;15.30;9.33;;;3.20;99.90;;;;;;6343369;22;20356;-92
2022/03/11 01:16:35;;;;;;;15.75;9.00;;;3.30;99.90;;;;;;6370741;22;20018;-90
2022/03/11 01:19:01;;;;;;;18.63;9.48;;;3.30;99.90;;;;;;6342978;22;20014;-94
2022/03/11 01:21:27;;;;;;;18.60;10.15;;;3.30;99.90;;;;;;6343032;22;20045;-90
2022/03/11 01:23:55;;;;;;;16.27;9.02;;;3.30;99.90;;;;;;6343125;22;20018;-93
2022/03/11 01:26:21;;;;;;;18.85;10.32;;;3.30;99.90;;;;;;6343030;22;20022;-91
2022/03/11 01:28:47;;;;;;;15.20;9.30;;;3.30;99.90;;;;;;6343554;22;20033;-83
2022/03/11 01:31:16;;;;;;;15.87;9.67;;;3.40;99.90;;;;;;6342338;22;20348;-83
2022/03/11 01:33:43;;;;;;;15.60;9.77;;;3.40;99.90;;;;;;6342330;22;20015;-82
2022/03/11 01:36:09;;;;;;;17.02;11.23;;;3.30;99.90;;;;;;6344166;22;20451;-83
2022/03/11 01:38:35;;;;;;;18.30;11.07;;;3.30;99.90;;;;;;6370176;22;20054;-83
2022/03/11 01:41:02;;;;;;;17.90;10.80;;;3.30;99.90;;;;;;6344119;22;20029;-82
2022/03/11 01:43:28;;;;;;;17.98;11.23;;;3.30;99.90;;;;;;6360352;22;20240;-83
2022/03/11 01:45:54;;;;;;;17.38;10.88;;;3.20;99.90;;;;;;6362966;22;20022;-87
2022/03/11 01:48:20;;;;;;;17.95;10.98;;;3.10;99.90;;;;;;6381057;22;20022;-93
2022/03/11 01:50:46;;;;;;;21.52;10.90;;;3.10;99.90;;;;;;6319249;22;20023;-95
2022/03/11 01:53:13;;;;;;;18.65;10.93;;;3.10;99.90;;;;;;6344916;22;20058;-93
2022/03/11 01:55:39;;;;;;;;;;;3.10;99.90;;;;;;6319539;22;20029;-84
2022/03/11 01:58:06;;;;;;;19.15;11.23;;;3.00;99.90;;;;;;6317780;22;19949;-86
2022/03/11 02:06:13;;;;;;;18.00;11.05;;;2.90;99.90;;;;;;6389528;22;20018;-84
2022/03/11 02:08:39;;;;;;;20.48;11.73;;;2.80;99.90;;;;;;6350649;22;20390;-84
2022/03/11 02:11:05;;;;;;;22.13;12.75;;;2.80;99.90;;;;;;6349924;22;20014;-85
2022/03/11 02:13:47;;;;;;;20.45;13.00;;;2.80;99.90;;;;;;6376059;22;20461;-92
2022/03/11 02:16:15;;;;;;;20.50;12.93;;;2.80;99.90;;;;;;6349507;22;20022;-89
2022/03/11 02:18:54;;;;;;;20.70;12.63;;;2.80;99.90;;;;;;6350221;22;20454;-84
2022/03/11 02:21:21;;;;;;;21.58;13.10;;;2.70;99.90;;;;;;6349480;22;20406;-90
2022/03/11 02:23:55;;;;;;;23.08;13.50;;;2.70;99.90;;;;;;6349224;22;20021;-90
2022/03/11 02:26:23;;;;;;;23.02;14.18;;;2.70;99.90;;;;;;6349379;22;20044;-84
2022/03/11 02:28:51;;;;;;;21.85;13.88;;;2.70;99.90;;;;;;6348913;22;20416;-91
2022/03/11 02:31:18;;;;;;;24.95;14.32;;;2.70;99.90;;;;;;6376104;22;20018;-85
2022/03/11 02:33:44;;;;;;;25.45;15.65;;;2.70;99.90;;;;;;6349498;22;20010;-90
2022/03/11 02:36:10;;;;;;;23.45;14.35;;;2.70;99.90;;;;;;6349014;22;20104;-84
2022/03/11 02:38:37;;;;;;;27.25;16.05;;;2.60;99.90;;;;;;6349207;22;20075;-84
2022/03/11 02:41:03;;;;;;;26.95;15.88;;;2.60;99.90;;;;;;6375461;22;20016;-85
2022/03/11 02:43:29;;;;;;;24.45;15.23;;;2.60;99.90;;;;;;6348797;22;20096;-84
2022/03/11 02:45:55;;;;;;;26.98;16.00;;;2.60;99.90;;;;;;6348013;22;20014;-86
2022/03/11 02:48:21;;;;;;;26.45;15.75;;;2.60;99.90;;;;;;6348356;22;20324;-84
2022/03/11 02:50:47;;;;;;;26.60;16.55;;;2.60;99.90;;;;;;6348791;22;20435;-84
2022/03/11 02:53:13;;;;;;;28.48;16.98;;;2.60;99.90;;;;;;6348630;22;20018;-84
2022/03/11 02:55:38;;;;;;;25.75;16.40;;;2.60;99.90;;;;;;6349099;22;20018;-83
2022/03/11 02:58:04;;;;;;;30.80;17.17;;;2.60;99.90;;;;;;6348112;22;20510;-84
2022/03/11 03:00:30;;;;;;;27.67;17.42;;;2.60;99.90;;;;;;6348846;22;20049;-83
2022/03/11 03:02:56;;;;;;;25.77;16.35;;;2.50;99.90;;;;;;6375205;22;20465;-85
2022/03/11 03:05:21;;;;;;;23.88;15.77;;;2.50;99.90;;;;;;6349232;22;20024;-84
2022/03/11 03:07:47;;;;;;;27.45;17.60;;;2.50;99.90;;;;;;6349731;22;20020;-85
2022/03/11 03:10:13;;;;;;;27.55;17.35;;;2.50;99.90;;;;;;6376506;22;20324;-85
2022/03/11 03:12:39;;;;;;;31.25;18.25;;;2.50;99.90;;;;;;6376044;22;20014;-84
2022/03/11 03:15:07;;;;;;;25.23;17.25;;;2.50;99.90;;;;;;6348753;22;20018;-87
2022/03/11 03:17:33;;;;;;;27.52;17.60;;;2.50;99.90;;;;;;6349603;22;20018;-85
2022/03/11 03:19:58;;;;;;;30.20;17.45;;;2.50;99.90;;;;;;6349003;22;20025;-84
2022/03/11 03:22:24;;;;;;;29.17;17.63;;;2.50;99.90;;;;;;6374880;22;20026;-85
2022/03/11 03:24:50;;;;;;;30.33;18.47;;;2.40;99.90;;;;;;6348640;22;20024;-84
2022/03/11 03:27:16;;;;;;;28.30;17.27;;;2.40;99.90;;;;;;6348242;22;20022;-84
2022/03/11 03:29:42;;;;;;;28.63;18.35;;;2.40;99.90;;;;;;6348082;22;20088;-85
2022/03/11 03:32:08;;;;;;;26.42;17.88;;;2.40;99.90;;;;;;6348536;22;20021;-85
2022/03/11 03:34:36;;;;;;;29.38;18.60;;;2.30;99.90;;;;;;6348518;22;20093;-86
2022/03/11 03:37:12;;;;;;;29.02;18.02;;;2.30;99.90;;;;;;6348756;22;20013;-86
2022/03/11 03:39:39;;;;;;;29.55;18.92;;;2.30;99.90;;;;;;6348697;22;20021;-85
2022/03/11 03:42:05;;;;;;;27.70;17.85;;;2.20;99.90;;;;;;6348356;22;20014;-85
2022/03/11 03:44:32;;;;;;;26.43;17.93;;;2.20;99.90;;;;;;6374918;22;20024;-87
2022/03/11 03:46:57;;;;;;;28.30;18.13;;;2.20;99.90;;;;;;6348558;22;20248;-86
2022/03/11 03:49:23;;;;;;;29.10;18.23;;;2.20;99.90;;;;;;6374537;22;20072;-88
2022/03/11 03:51:49;;;;;;;29.05;19.20;;;2.20;99.90;;;;;;6374728;22;20022;-85
2022/03/11 03:54:17;;;;;;;30.37;18.57;;;2.20;99.90;;;;;;6374760;22;20062;-85
2022/03/11 03:56:44;;;;;;;28.42;19.08;;;2.20;99.90;;;;;;6374912;22;20022;-86
2022/03/11 03:59:13;;;;;;;28.60;18.35;;;2.10;99.90;;;;;;6403930;22;20021;-85
2022/03/11 04:01:40;;;;;;;30.83;18.73;;;2.10;99.90;;;;;;6375337;22;20418;-86
2022/03/11 04:04:08;;;;;;;28.95;17.92;;;2.00;99.90;;;;;;6402781;22;20050;-85
2022/03/11 04:06:36;;;;;;;26.27;17.60;;;2.10;99.90;;;;;;6374524;22;20434;-87
2022/03/11 04:09:05;;;;;;;29.00;18.60;;;2.10;99.90;;;;;;6374719;22;20026;-85
2022/03/11 04:11:31;;;;;;;29.50;19.00;;;2.10;99.90;;;;;;6375292;22;20018;-84
2022/03/11 04:13:58;;;;;;;31.45;20.45;;;2.10;99.90;;;;;;6375099;22;20025;-84
2022/03/11 04:16:26;;;;;;;29.25;19.27;;;2.10;99.90;;;;;;6403856;22;20018;-83
2022/03/11 04:18:53;;;;;;;29.30;18.35;;;2.00;99.90;;;;;;6376067;22;20029;-84
2022/03/11 04:21:19;;;;;;;28.70;18.55;;;2.00;99.90;;;;;;6375927;22;20054;-84
2022/03/11 04:23:47;;;;;;;30.63;19.63;;;2.10;99.90;;;;;;6378368;22;20347;-83
2022/03/11 04:26:14;;;;;;;29.35;18.92;;;2.10;99.90;;;;;;6376991;22;20026;-83
2022/03/11 04:28:40;;;;;;;31.38;19.33;;;2.10;99.90;;;;;;6405281;22;20021;-83
2022/03/11 04:31:10;;;;;;;26.25;17.90;;;2.10;99.90;;;;;;6377056;22;20018;-85
2022/03/11 04:33:37;;;;;;;27.95;18.40;;;2.10;99.90;;;;;;6374099;22;20045;-83
2022/03/11 04:36:03;;;;;;;29.70;19.55;;;2.10;99.90;;;;;;6374345;22;20044;-84
2022/03/11 04:38:36;;;;;;;27.55;18.33;;;2.10;99.90;;;;;;6349286;22;20446;-83
2022/03/11 04:41:02;;;;;;;30.45;17.65;;;2.10;99.90;;;;;;6375924;22;20028;-84
2022/03/11 04:43:28;;;;;;;31.67;19.85;;;2.10;99.90;;;;;;6375565;22;20014;-86
2022/03/11 04:45:53;;;;;;;29.10;18.80;;;2.00;99.90;;;;;;6377083;22;20385;-85
2022/03/11 04:48:20;;;;;;;30.87;19.30;;;2.00;99.90;;;;;;6376651;22;20018;-84
2022/03/11 04:50:46;;;;;;;31.15;19.38;;;2.00;99.90;;;;;;6377040;22;20025;-85
2022/03/11 04:53:12;;;;;;;29.55;19.58;;;2.00;99.90;;;;;;6375143;22;20097;-83
2022/03/11 04:55:38;;;;;;;29.55;18.75;;;2.00;99.90;;;;;;6374952;22;20026;-84
2022/03/11 04:58:03;;;;;;;27.33;17.73;;;1.90;99.90;;;;;;6375181;22;20022;-85
2022/03/11 05:00:29;;;;;;;27.67;18.60;;;2.00;99.90;;;;;;6405258;22;20346;-83
2022/03/11 05:02:55;;;;;;;27.55;18.60;;;2.00;99.90;;;;;;6405902;22;20029;-83
2022/03/11 05:05:21;;;;;;;27.85;19.27;;;2.00;99.90;;;;;;6403998;22;20021;-84
2022/03/11 05:07:47;;;;;;;27.70;18.13;;;2.00;99.90;;;;;;6377273;22;20018;-86
2022/03/11 05:10:14;;;;;;;28.03;18.37;;;2.10;99.90;;;;;;6378628;22;20026;-89
2022/03/11 05:12:41;;;;;;;30.60;19.30;;;2.00;99.90;;;;;;6380632;22;20309;-88
2022/03/11 05:15:08;;;;;;;27.08;18.42;;;2.00;99.90;;;;;;6380055;22;20531;-88
2022/03/11 05:17:33;;;;;;;;;;;2.00;99.90;;;;;;6354588;22;20049;-89
2022/03/11 05:19:59;;;;;;;32.15;18.83;;;2.00;99.90;;;;;;6405791;22;19914;-85
2022/03/11 05:22:44;;;;;;;29.35;19.15;;;1.90;99.90;;;;;;6378337;22;20018;-93
2022/03/11 05:25:11;;;;;;;29.85;18.05;;;1.90;99.90;;;;;;6351521;22;20253;-86
2022/03/11 05:27:37;;;;;;;34.58;20.15;;;1.80;99.90;;;;;;6381811;22;20101;-86
2022/03/11 05:30:06;;;;;;;29.33;18.77;;;1.80;99.90;;;;;;6377175;22;20029;-87
2022/03/11 05:32:32;;;;;;;26.88;18.35;;;1.70;99.90;;;;;;6378507;22;20025;-84
2022/03/11 05:34:59;;;;;;;31.90;19.55;;;1.70;99.90;;;;;;6379482;22;20024;-90
2022/03/11 05:37:59;;;;;;;30.58;19.10;;;1.70;99.90;;;;;;6377862;22;20021;-86
2022/03/11 05:41:04;;;;;;;29.73;18.63;;;1.70;99.90;;;;;;6351165;22;20474;-86
2022/03/11 05:43:30;;;;;;;30.92;19.38;;;1.70;99.90;;;;;;6350738;22;20021;-85
2022/03/11 05:45:56;;;;;;;31.65;19.05;;;1.70;99.90;;;;;;6375442;22;20097;-92
2022/03/11 05:48:22;;;;;;;29.60;18.27;;;1.70;99.90;;;;;;6351484;22;20113;-86
2022/03/11 05:50:47;;;;;;;30.00;18.50;;;1.70;99.90;;;;;;6349341;22;20022;-84
2022/03/11 05:53:22;;;;;;;31.20;18.58;;;1.60;99.90;;;;;;6348255;22;20036;-86
2022/03/11 05:55:48;;;;;;;30.65;18.27;;;1.70;99.90;;;;;;6374594;22;20018;-87
2022/03/11 05:58:13;;;;;;;31.50;19.85;;;1.60;99.90;;;;;;6347555;22;20014;-86
2022/03/11 06:00:57;;;;;;;31.27;18.80;;;1.60;99.90;;;;;;6347344;22;20010;-86
2022/03/11 06:03:23;;;;;;;29.98;19.48;;;1.60;99.90;;;;;;6347241;22;20017;-83
2022/03/11 06:05:48;;;;;;;28.95;18.63;;;1.60;99.90;;;;;;6402002;22;20521;-87
2022/03/11 06:08:14;;;;;;;29.88;18.60;;;1.50;99.90;;;;;;6402039;22;20093;-89
2022/03/11 06:10:42;;;;;;;29.48;18.90;;;1.50;99.90;;;;;;6373907;22;20074;-83
2022/03/11 06:13:09;;;;;;;29.20;19.00;;;1.50;99.90;;;;;;6372009;22;20489;-85
2022/03/11 06:15:34;;;;;;;29.42;19.00;;;1.50;99.90;;;;;;6344660;22;20057;-86
2022/03/11 06:18:27;;;;;;;29.27;18.73;;;1.50;99.90;;;;;;6400393;22;20025;-84
2022/03/11 06:21:12;;;;;;;30.48;19.52;;;1.50;99.90;;;;;;6348469;22;20013;-84
2022/03/11 06:23:38;;;;;;;29.05;18.85;;;1.50;99.90;;;;;;6348701;22;20338;-84
2022/03/11 06:26:04;;;;;;;31.05;19.05;;;1.50;99.90;;;;;;6375306;22;20014;-83
2022/03/11 06:28:31;;;;;;;30.30;19.27;;;1.50;99.90;;;;;;6375218;22;20048;-83
2022/03/11 06:31:02;;;;;;;30.92;19.85;;;1.60;99.90;;;;;;6348948;22;20014;-87
2022/03/11 06:33:28;;;;;;;29.38;18.95;;;1.60;99.90;;;;;;6375033;22;20009;-84
2022/03/11 06:35:53;;;;;;;27.70;17.63;;;1.60;99.90;;;;;;6349362;22;20014;-84
2022/03/11 06:38:19;;;;;;;31.02;18.88;;;1.60;99.90;;;;;;6349229;22;20014;-88
2022/03/11 06:41:03;;;;;;;30.40;19.58;;;1.70;99.90;;;;;;6349678;22;20512;-84
2022/03/11 06:43:29;;;;;;;28.88;18.55;;;1.70;99.90;;;;;;6368843;22;20018;-84
2022/03/11 06:45:55;;;;;;;29.45;18.63;;;1.80;99.90;;;;;;6373831;22;20041;-86
2022/03/11 06:48:21;;;;;;;26.70;18.25;;;1.90;99.90;;;;;;6348695;22;20101;-84
2022/03/11 06:50:48;;;;;;;28.63;18.27;;;1.90;99.90;;;;;;6348895;22;20021;-86
2022/03/11 06:53:14;;;;;;;29.10;18.83;;;2.00;99.90;;;;;;6349144;22;20087;-84
2022/03/11 06:55:40;;;;;;;29.25;18.27;;;2.10;99.90;;;;;;6348949;22;20022;-89
2022/03/11 06:58:06;;;;;;;26.77;17.17;;;2.20;99.90;;;;;;6375017;22;20020;-84
2022/03/11 07:00:31;;;;;;;30.05;18.90;;;2.40;99.90;;;;;;6348284;22;20101;-82
2022/03/11 07:02:58;;;;;;;27.83;18.05;;;2.60;99.90;;;;;;6374903;22;20051;-82
2022/03/11 07:05:24;;;;;;;28.95;18.48;;;2.70;99.90;;;;;;6374702;22;20096;-84
2022/03/11 07:07:50;;;;;;;26.88;17.08;;;3.20;99.90;;;;;;6375117;22;20022;-82
2022/03/11 07:10:16;;;;;;;27.83;17.77;;;3.40;99.90;;;;;;6348817;22;20029;-88
2022/03/11 07:12:43;;;;;;;26.45;17.80;;;3.50;99.90;;;;;;6374671;22;20021;-84
2022/03/11 07:15:09;;;;;;;27.95;18.02;;;3.50;99.90;;;;;;6402824;22;20018;-83
2022/03/11 07:17:35;;;;;;;29.15;17.70;;;3.40;99.90;;;;;;6403016;22;20017;-85
2022/03/11 07:20:03;;;;;;;28.63;17.35;;;3.50;99.90;;;;;;6403082;22;20343;-86
2022/03/11 07:22:30;;;;;;;26.08;16.90;;;3.60;99.90;;;;;;6402893;22;20022;-85
2022/03/11 07:24:55;;;;;;;30.40;17.67;;;3.90;99.90;;;;;;6348216;22;20025;-82
2022/03/11 07:27:22;;;;;;;28.23;17.80;;;4.00;99.90;;;;;;6374870;22;20096;-82
2022/03/11 07:29:48;;;;;;;28.90;17.23;;;4.00;99.90;;;;;;6374606;22;20446;-82
2022/03/11 07:32:16;;;;;;;25.95;17.38;;;3.90;99.90;;;;;;6374359;22;20078;-84
2022/03/11 07:34:42;;;;;;;25.77;17.20;;;3.80;99.90;;;;;;6374558;22;20014;-83
2022/03/11 07:37:11;;;;;;;26.58;17.13;;;3.70;99.90;;;;;;6402743;22;20385;-83
2022/03/11 07:39:39;;;;;;;25.95;17.42;;;3.70;99.90;;;;;;6402815;22;20022;-83
2022/03/11 07:42:05;;;;;;;27.25;16.98;;;3.70;99.90;;;;;;6402663;22;20018;-86
2022/03/11 07:44:32;;;;;;;25.70;16.33;;;3.70;99.90;;;;;;6402535;22;20443;-83
2022/03/11 07:46:57;;;;;;;28.08;17.17;;;3.80;99.90;;;;;;6374563;22;20286;-84
2022/03/11 07:49:23;;;;;;;26.98;17.20;;;3.90;99.90;;;;;;6402821;22;20447;-85
2022/03/11 07:51:49;;;;;;;28.08;17.73;;;4.00;99.90;;;;;;6374575;22;20443;-84
2022/03/11 07:54:14;;;;;;;25.95;17.17;;;4.00;99.90;;;;;;6402393;22;20024;-84
2022/03/11 07:56:41;;;;;;;28.77;17.57;;;4.00;99.90;;;;;;6374304;22;20117;-83
2022/03/11 07:59:07;;;;;;;25.67;17.58;;;4.00;99.90;;;;;;6374190;22;20018;-82
2022/03/11 08:01:33;;;;;;;27.13;17.50;;;4.10;99.90;;;;;;6374159;22;20016;-84
2022/03/11 08:03:59;;;;;;;28.17;17.10;;;4.10;99.90;;;;;;6374341;22;20022;-84
2022/03/11 08:06:25;;;;;;;25.37;15.77;;;4.20;99.90;;;;;;6347853;22;20049;-83
2022/03/11 08:08:50;;;;;;;26.90;17.67;;;4.30;99.90;;;;;;6402649;22;20017;-84
2022/03/11 08:11:16;;;;;;;26.00;17.40;;;4.30;99.90;;;;;;6348207;22;20400;-82
2022/03/11 08:13:42;;;;;;;27.40;16.70;;;4.40;99.90;;;;;;6374255;22;20013;-86
2022/03/11 08:16:08;;;;;;;25.20;16.20;;;4.50;99.90;;;;;;6402687;22;20029;-85
2022/03/11 08:18:35;;;;;;;24.33;16.75;;;4.50;99.90;;;;;;6374399;22;20014;-83
2022/03/11 08:21:02;;;;;;;25.75;16.85;;;4.60;99.90;;;;;;6402891;22;20024;-84
2022/03/11 08:23:28;;;;;;;28.77;16.90;;;4.60;99.90;;;;;;6373994;22;20061;-84
2022/03/11 08:25:54;;;;;;;25.57;16.97;;;4.70;99.90;;;;;;6374126;22;20438;-83
2022/03/11 08:28:22;;;;;;;28.23;16.80;;;4.70;99.90;;;;;;6374137;22;20022;-86
2022/03/11 08:30:48;;;;;;;27.45;16.92;;;4.80;99.90;;;;;;6402506;22;20071;-83
2022/03/11 08:33:20;;;;;;;27.92;16.88;;;4.80;99.90;;;;;;6373933;22;20022;-84
2022/03/11 08:35:47;;;;;;;27.88;16.77;;;4.90;99.90;;;;;;6402389;22;20060;-86
2022/03/11 08:38:13;;;;;;;27.27;16.40;;;5.00;99.90;;;;;;6348076;22;20014;-83
2022/03/11 08:40:39;;;;;;;25.58;15.50;;;5.00;99.90;;;;;;6374240;22;20022;-83
2022/03/11 08:43:05;;;;;;;25.88;16.75;;;5.10;99.90;;;;;;6373732;22;20063;-85
2022/03/11 08:45:32;;;;;;;25.25;16.10;;;5.20;99.90;;;;;;6348080;22;20022;-90
2022/03/11 08:47:58;;;;;;;29.50;16.27;;;5.20;99.90;;;;;;6375002;22;20066;-82
2022/03/11 08:50:24;;;;;;;25.33;15.97;;;5.30;99.90;;;;;;6374349;22;20018;-86
2022/03/11 08:52:50;;;;;;;26.58;16.05;;;5.40;99.90;;;;;;6402584;22;20720;-83
2022/03/11 08:55:16;;;;;;;29.50;15.70;;;5.40;99.90;;;;;;6402284;22;20029;-84
2022/03/11 08:57:48;;;;;;;27.30;16.57;;;5.50;99.90;;;;;;6401974;22;20029;-83
2022/03/11 09:00:16;;;;;;;25.95;16.45;;;5.50;99.90;;;;;;6401944;22;20379;-82
2022/03/11 09:02:43;;;;;;;22.20;15.10;;;5.60;99.90;;;;;;6373860;22;20020;-84
2022/03/11 09:05:10;;;;;;;25.80;16.83;;;5.70;99.90;;;;;;6373450;22;20032;-86
2022/03/11 09:07:37;;;;;;;23.95;15.80;;;5.70;99.90;;;;;;6347704;22;20343;-84
2022/03/11 09:10:06;;;;;;;23.80;16.70;;;5.80;99.90;;;;;;6402040;22;20017;-84
2022/03/11 09:12:32;;;;;;;23.05;16.05;;;5.90;99.90;;;;;;6374106;22;20050;-83
2022/03/11 09:14:57;;;;;;;24.83;17.10;;;5.90;99.80;;;;;;6402512;22;20025;-89
2022/03/11 09:17:23;;;;;;;26.07;16.70;;;6.00;99.50;;;;;;6402195;22;20052;-85
2022/03/11 09:19:49;;;;;;;26.13;16.13;;;6.10;99.10;;;;;;6374177;22;20029;-86
2022/03/11 09:22:17;;;;;;;23.60;15.80;;;6.10;99.00;;;;;;6347952;22;20065;-83
2022/03/11 09:24:46;;;;;;;24.08;15.55;;;6.20;99.00;;;;;;6373986;22;20066;-84
2022/03/11 09:27:12;;;;;;;22.02;15.85;;;6.20;98.60;;;;;;6402104;22;20017;-82
2022/03/11 09:29:41;;;;;;;24.13;15.73;;;6.30;98.60;;;;;;6347605;22;20021;-84
2022/03/11 09:32:07;;;;;;;23.80;15.95;;;6.40;98.50;;;;;;6401908;22;20014;-84
2022/03/11 09:34:35;;;;;;;25.10;16.50;;;6.50;97.80;;;;;;6373955;22;20025;-85
2022/03/11 09:37:01;;;;;;;24.83;16.27;;;6.60;97.60;;;;;;6374082;22;20472;-84
2022/03/11 09:39:27;;;;;;;25.20;15.63;;;6.60;97.10;;;;;;6402196;22;20026;-86
2022/03/11 09:41:53;;;;;;;25.05;15.88;;;6.60;96.20;;;;;;6402505;22;20014;-85
2022/03/11 09:44:20;;;;;;;22.50;15.70;;;6.70;95.70;;;;;;6374892;22;20018;-87
2022/03/11 09:46:46;;;;;;;25.05;16.08;;;6.80;95.50;;;;;;6402550;22;20014;-91
2022/03/11 09:49:13;;;;;;;23.98;16.25;;;6.80;95.60;;;;;;6373358;22;20018;-84
2022/03/11 09:51:41;;;;;;;;;;;6.80;94.40;;;;;;6373990;22;20346;-85
2022/03/11 09:54:08;;;;;;;24.27;15.88;;;6.90;94.50;;;;;;6401858;22;19910;-85
2022/03/11 09:56:35;;;;;;;24.20;15.77;;;7.00;94.40;;;;;;6403491;22;20036;-84
2022/03/11 09:59:01;;;;;;;;;;;7.10;93.70;;;;;;6404493;22;20098;-83
2022/03/11 10:01:26;;;;;;;23.42;15.70;;;7.20;93.60;;;;;;6403850;22;19945;-84
2022/03/11 10:03:53;;;;;;;24.13;15.80;;;7.20;93.10;;;;;;6375561;22;20018;-83
2022/03/11 10:06:41;;;;;;;24.85;15.57;;;7.40;92.90;;;;;;6403379;22;20366;-85
2022/03/11 10:09:16;;;;;;;22.42;16.02;;;7.40;91.40;;;;;;6375389;22;20060;-85
2022/03/11 10:11:43;;;;;;;23.00;16.20;;;7.50;90.80;;;;;;6376776;22;20017;-89
2022/03/11 10:14:09;;;;;;;22.42;15.30;;;7.50;90.40;;;;;;6378667;22;20348;-88
2022/03/11 10:16:37;;;;;;;24.30;16.40;;;7.60;90.50;;;;;;6376633;22;20028;-88
2022/03/11 10:19:09;;;;;;;23.58;15.52;;;7.70;89.30;;;;;;6375922;22;20047;-89
2022/03/11 10:21:38;;;;;;;25.17;16.15;;;7.70;88.60;;;;;;6375684;22;20025;-88
2022/03/11 10:24:12;;;;;;;21.45;15.45;;;7.70;88.10;;;;;;6375838;22;20022;-85
2022/03/11 10:26:40;;;;;;;22.00;15.00;;;7.80;87.60;;;;;;6376144;22;20022;-85
2022/03/11 10:29:12;;;;;;;25.50;15.48;;;7.90;88.50;;;;;;6404108;22;20018;-88
2022/03/11 10:31:41;;;;;;;22.63;15.68;;;8.00;88.00;;;;;;6404486;22;20018;-90
2022/03/11 10:34:24;;;;;;;22.27;15.27;;;8.10;87.40;;;;;;6404419;22;20044;-92
2022/03/11 10:36:51;;;;;;;22.95;15.38;;;8.20;86.80;;;;;;6404369;22;20022;-94
2022/03/11 10:39:23;;;;;;;22.95;14.00;;;8.30;86.60;;;;;;6376405;22;20032;-88
2022/03/11 10:41:50;;;;;;;22.35;14.35;;;8.40;84.80;;;;;;6405119;22;20014;-92
2022/03/11 10:44:26;;;;;;;22.33;15.02;;;8.50;84.20;;;;;;6378102;22;20009;-89
2022/03/11 10:46:55;;;;;;;21.15;14.30;;;8.60;83.10;;;;;;6404494;22;20052;-86
2022/03/11 10:49:31;;;;;;;19.02;13.90;;;8.80;82.30;;;;;;6403200;22;20022;-85
2022/03/11 10:52:00;;;;;;;23.52;14.73;;;8.80;79.90;;;;;;6403856;22;20094;-84
2022/03/11 10:54:27;;;;;;;22.27;15.57;;;8.90;79.00;;;;;;6375200;22;20516;-84
2022/03/11 10:56:54;;;;;;;23.20;14.75;;;8.90;78.80;;;;;;6375300;22;20100;-88
2022/03/11 10:59:28;;;;;;;22.25;13.77;;;9.00;78.30;;;;;;6404063;22;20021;-89
2022/03/11 11:01:57;;;;;;;21.65;13.95;;;9.00;78.10;;;;;;6405768;22;20014;-93
2022/03/11 11:04:25;;;;;;;22.90;14.55;;;9.10;77.90;;;;;;6407531;22;20025;-92
2022/03/11 11:06:52;;;;;;;23.83;14.77;;;9.20;76.60;;;;;;6364989;22;20093;-87
2022/03/11 11:09:22;;;;;;;20.20;13.98;;;9.20;75.20;;;;;;6354320;22;20022;-89
2022/03/11 11:11:49;;;;;;;24.17;14.20;;;9.20;74.80;;;;;;6380286;22;20063;-90
2022/03/11 11:14:15;;;;;;;21.42;14.10;;;9.30;74.30;;;;;;6406352;22;20028;-90
2022/03/11 11:16:46;;;;;;;20.30;14.30;;;9.20;73.70;;;;;;6374187;22;20049;-89
2022/03/11 11:19:19;;;;;;;19.77;13.82;;;9.30;72.90;;;;;;6403949;22;20058;-88
2022/03/11 11:21:48;;;;;;;20.42;13.85;;;9.30;72.20;;;;;;6402185;22;20089;-85
2022/03/11 11:24:19;;;;;;;22.08;14.40;;;9.30;72.40;;;;;;6401693;22;20018;-88
2022/03/11 11:26:50;;;;;;;20.33;13.15;;;9.30;72.10;;;;;;6349014;22;20014;-91
2022/03/11 11:29:25;;;;;;;21.38;13.07;;;9.30;72.30;;;;;;6403245;22;20028;-88
2022/03/11 11:31:51;;;;;;;21.90;14.80;;;9.30;71.30;;;;;;6362333;22;20018;-86
2022/03/11 11:34:32;;;;;;;20.33;13.57;;;9.40;72.30;;;;;;6375473;22;20025;-90
2022/03/11 11:36:59;;;;;;;21.17;13.90;;;9.40;71.60;;;;;;6403611;22;20086;-91
2022/03/11 11:39:38;;;;;;;23.02;14.48;;;9.40;70.90;;;;;;6375809;22;20104;-89
2022/03/11 11:42:09;;;;;;;19.85;13.95;;;9.50;70.90;;;;;;6402998;22;20017;-91
2022/03/11 11:44:37;;;;;;;19.42;13.00;;;9.50;70.30;;;;;;6402972;22;20013;-91
2022/03/11 11:47:28;;;;;;;19.42;13.52;;;9.50;69.60;;;;;;6408377;22;20025;-94
2022/03/11 11:49:55;;;;;;;19.52;12.77;;;9.50;68.80;;;;;;6375504;22;20070;-86
2022/03/11 11:52:38;;;;;;;18.42;13.00;;;9.60;68.60;;;;;;6406323;22;20093;-85
2022/03/11 11:55:19;;;;;;;19.35;12.80;;;9.60;69.30;;;;;;6408857;22;20057;-93
2022/03/11 11:57:46;;;;;;;19.55;13.20;;;9.70;69.30;;;;;;6407177;22;20074;-93
2022/03/11 12:00:44;;;;;;;18.33;13.40;;;9.80;67.80;;;;;;6381311;22;20105;-88
2022/03/11 12:03:14;;;;;;;19.98;13.20;;;9.90;68.00;;;;;;6326085;22;20028;-89
2022/03/11 12:05:49;;;;;;;18.25;12.75;;;9.90;67.50;;;;;;6410806;22;20105;-92
2022/03/11 12:08:33;;;;;;;17.80;13.13;;;10.00;67.40;;;;;;6406542;22;20343;-85
2022/03/11 12:11:00;;;;;;;19.42;13.00;;;10.10;67.50;;;;;;6404532;22;20029;-86
2022/03/11 12:13:34;;;;;;;19.30;12.82;;;10.10;67.30;;;;;;6404397;22;20017;-87
2022/03/11 12:16:01;;;;;;;18.88;13.52;;;10.20;67.10;;;;;;6403591;22;20350;-84
2022/03/11 12:18:42;;;;;;;18.95;13.88;;;10.20;67.60;;;;;;6375067;22;20021;-86
2022/03/11 12:21:38;;;;;;;18.15;12.55;;;10.30;67.60;;;;;;6359282;22;20022;-91
2022/03/11 12:24:43;;;;;;;19.60;12.63;;;10.30;67.00;;;;;;6409294;22;20381;-92
2022/03/11 12:27:08;;;;;;;17.08;11.80;;;10.40;65.20;;;;;;6380483;22;20024;-85
2022/03/11 12:29:36;;;;;;;19.47;12.90;;;10.40;65.90;;;;;;6378393;22;20037;-87
2022/03/11 12:32:13;;;;;;;17.67;11.63;;;10.40;65.10;;;;;;6349500;22;20022;-85
2022/03/11 12:34:41;;;;;;;17.73;12.23;;;10.40;65.10;;;;;;6403064;22;20371;-83
2022/03/11 12:37:13;;;;;;;17.67;12.15;;;10.40;65.30;;;;;;6374260;22;20321;-92
2022/03/11 12:39:40;;;;;;;20.20;12.98;;;10.40;65.10;;;;;;6402698;22;20377;-83
2022/03/11 12:42:06;;;;;;;19.00;12.38;;;10.50;65.50;;;;;;6348468;22;20106;-90
2022/03/11 12:44:47;;;;;;;18.83;12.40;;;10.50;65.20;;;;;;6403183;22;20021;-86
2022/03/11 12:47:17;;;;;;;17.42;12.40;;;10.50;65.10;;;;;;6374401;22;20022;-84
2022/03/11 12:49:43;;;;;;;18.52;11.82;;;10.50;64.10;;;;;;6374744;22;20049;-90